Sarcobatus Flat, Nevada Weather observations

Data are for observation ending at time listed.
 Day   Time    Ave.   Ave.  Ave.  Vector   Max.   Stn.    Total    Solar   Ave.  
  of    of     Air    Rel.  Wind   Wind    Wind   Baro.  Precip.   Rad.    Soil  
Year   Day     Temp.  Hum.  Speed  Dir.    Gust   Pres.                    Temp. 
2014   (PST)    F      %     mph   deg.    mph     mb.     in.     W/m2     F   
------------------------------------------------------------------------------
 297   21:20   63.5    29    5.8   139      6.8   880.4    0.00       0    999.0
 297   21:30   63.3    29    4.1   108      6.9   880.4    0.00       0    999.0
 297   21:40   64.4    28    0.8   102      5.6   880.4    0.00       0    999.0
 297   21:50   64.2    28    0.0    99      0.8   880.4    0.00       0    999.0
 297   22:00   64.2    28    0.0     0      0.0   880.4    0.00       0    999.0
 297   22:10   63.7    28    1.8   149      4.8   880.4    0.00       0    999.0
 297   22:20   61.5    31    6.0   170      7.7   880.3    0.00       0    999.0
 297   22:30   61.2    32    7.2   169      8.7   880.3    0.00       0    999.0
 297   22:40   61.1    32    7.3   156     10.1   880.3    0.00       0    999.0
 297   22:50   62.3    31    4.7   161      8.6   880.1    0.00       0    999.0
 297   23:00   63.4    30    7.9   145     11.7   880.1    0.00       0    999.0
 297   23:10   60.4    33    3.8   199      5.9   880.2    0.00       0    999.0
 297   23:20   61.4    32    6.6   148     10.2   880.2    0.00       0    999.0
 297   23:30   61.7    31    6.0   147      9.5   880.1    0.00       0    999.0
 297   23:40   62.5    31   10.3   139     15.9   880.1    0.00       0    999.0
 297   23:50   63.0    30   11.9   139     14.9   880.1    0.00       0    999.0
 298    0:00   63.5    30   11.6   137     15.8   880.2    0.00       0    999.0
 298    0:10   63.4    30   11.2   136     15.1   880.2    0.00       0    999.0
 298    0:20   62.9    31    9.3   136     12.8   880.2    0.00       0    999.0
 298    0:30   61.8    32    7.2   138      9.1   880.2    0.00       0    999.0
 298    0:40   60.2    34    6.2   138      8.1   880.2    0.00       0    999.0
 298    0:50   61.1    33    7.5   134     13.9   880.1    0.00       0    999.0
 298    1:00   60.8    33    6.3   138      8.5   880.1    0.00       0    999.0
 298    1:10   59.1    35    0.9   145      5.3   880.1    0.00       0    999.0
 298    1:20   59.6    34    3.8   138      7.6   880.0    0.00       0    999.0
 298    1:30   59.8    34    5.8   129     13.1   879.9    0.00       0    999.0
 298    1:40   62.3    32   11.3   126     13.9   879.7    0.00       0    999.0
 298    1:50   62.5    32   11.4   128     14.2   879.6    0.00       0    999.0
 298    2:00   62.7    31   11.9   129     15.3   879.5    0.00       0    999.0
 298    2:10   62.5    31   11.8   131     16.0   879.4    0.00       0    999.0
 298    2:20   61.8    31   10.3   143     12.1   879.4    0.00       0    999.0
 298    2:30   61.3    32   10.5   139     13.4   879.3    0.00       0    999.0
 298    2:40   61.2    32    9.9   134     13.0   879.2    0.00       0    999.0
 298    2:50   60.9    32    7.8   133     11.2   879.1    0.00       0    999.0
 298    3:00   61.0    32   10.0   129     13.3   878.9    0.00       0    999.0
 298    3:10   61.7    31   10.4   133     14.2   878.9    0.00       0    999.0
 298    3:20   62.2    30    8.4   138     13.4   879.0    0.00       0    999.0
 298    3:30   58.3    35    0.7   188      6.4   879.0    0.00       0    999.0
 298    3:40   58.5    34    3.5   155      6.4   878.8    0.00       0    999.0
 298    3:50   59.5    34    9.0   137     12.6   878.9    0.00       0    999.0
 298    4:00   60.2    34   11.4   135     16.4   878.8    0.00       0    999.0
 298    4:10   60.2    34   13.8   136     16.6   878.7    0.00       0    999.0
 298    4:20   60.1    34   12.9   131     16.7   878.5    0.00       0    999.0
 298    4:30   60.9    33   11.7   137     17.1   878.6    0.00       0    999.0
 298    4:40   60.8    33   10.8   139     15.4   878.7    0.00       0    999.0
 298    4:50   60.0    34   10.1   144     13.2   878.8    0.00       0    999.0
 298    5:00   59.2    34   10.4   141     13.9   878.7    0.00       0    999.0
 298    5:10   58.7    35   10.3   139     13.3   878.7    0.00       0    999.0
 298    5:20   58.9    35   10.0   141     13.0   878.8    0.00       0    999.0
 298    5:30   59.3    34    9.6   141     13.7   879.0    0.00       0    999.0
 298    5:40   58.8    35    8.4   131     11.6   879.2    0.00       0    999.0
 298    5:50   57.9    37    7.7   130     11.2   879.3    0.00       0    999.0
 298    6:00   57.6    37    6.7   127      9.3   879.4    0.00       1    999.0
 298    6:10   56.5    39    4.7   104      6.4   879.6    0.00       4    999.0
 298    6:20   55.7    40    5.6   107      7.7   879.5    0.00      14    999.0
 298    6:30   57.1    39    8.2   122     12.2   879.5    0.00      49    999.0
 298    6:40   58.1    38    8.9   126     11.9   879.5    0.00      79    999.0
 298    6:50   59.7    36   10.6   125     15.1   879.6    0.00     107    999.0
 298    7:00   60.9    35   13.2   129     17.9   879.6    0.00     137    999.0
 298    7:10   61.9    34   14.2   134     18.1   879.8    0.00     169    999.0
 298    7:20   62.5    33   14.8   132     19.8   879.8    0.00     205    999.0
 298    7:30   63.1    33   14.8   132     18.9   879.9    0.00     238    999.0
 298    7:40   63.6    32   14.0   133     18.4   879.9    0.00     249    999.0
 298    7:50   64.3    32   14.0   130     18.6   879.8    0.00     296    999.0
 298    8:00   64.7    32   16.8   132     22.2   879.7    0.00     329    999.0
 298    8:10   65.3    32   14.7   138     19.6   879.7    0.00     360    999.0
 298    8:20   66.1    31   17.4   143     23.5   879.8    0.00     389    999.0
 298    8:30   66.5    31   18.0   146     23.1   879.8    0.00     412    999.0
 298    8:40   67.0    31   18.4   132     23.3   879.7    0.00     439    999.0
 298    8:50   67.7    30   18.1   137     25.1   879.6    0.00     469    999.0
 298    9:00   68.7    30   20.2   155     25.4   879.6    0.00     504    999.0
 298    9:10   68.8    29   23.2   154     28.3   879.5    0.00     528    999.0
 298    9:20   69.3    28   21.4   156     29.7   879.5    0.00     549    999.0
 298    9:30   69.4    27   23.0   150     29.6   879.5    0.00     568    999.0
 298    9:40   70.1    25   23.5   145     32.5   879.4    0.00     588    999.0
 298    9:50   70.7    24   23.7   150     30.9   879.3    0.00     607    999.0
 298   10:00   71.0    24   25.0   145     34.1   879.3    0.00     624    999.0
 298   10:10   71.7    23   23.9   152     33.0   879.2    0.00     640    999.0
 298   10:20   72.4    21   26.0   160     34.1   879.0    0.00     658    999.0
 298   10:30   73.1    20   23.3   165     30.9   879.0    0.00     685    999.0
 298   10:40   72.2    21   25.8   160     35.0   879.0    0.00     571    999.0
 298   10:50   72.4    22   24.8   160     31.9   878.8    0.00     688    999.0
 298   11:00   73.3    21   25.3   152     34.5   878.7    0.00     673    999.0
 298   11:10   73.6    21   26.6   154     35.7   878.6    0.00     750    999.0
 298   11:20   74.4    21   25.3   152     36.1   878.5    0.00     750    999.0
 298   11:30   74.8    22   25.4   150     37.8   878.3    0.00     747    999.0
 298   11:40   74.9    21   24.2   162     36.9   878.2    0.00     661    999.0
 298   11:50   75.2    19   26.1   168     39.6   877.9    0.00     716    999.0
 298   12:00   75.5    19   25.7   163     33.2   877.8    0.00     706    999.0
 298   12:10   75.8    19   25.6   163     35.5   877.7    0.00     703    999.0
 298   12:20   75.6    19   24.0   169     33.8   877.6    0.00     654    999.0
 298   12:30   75.7    19   26.0   160     36.2   877.4    0.00     684    999.0
 298   12:40   76.0    19   26.9   160     38.7   877.2    0.00     671    999.0
 298   12:50   76.1    18   28.8   157     36.8   877.1    0.00     660    999.0
 298   13:00   75.9    19   26.4   159     33.2   877.0    0.00     644    999.0
 298   13:10   76.3    20   25.0   161     34.6   876.8    0.00     628    999.0
 298   13:20   76.4    18   25.5   158     33.8   876.8    0.00     611    999.0
 298   13:30   76.9    18   22.2   170     31.6   876.8    0.00     592    999.0
 298   13:40   76.6    19   23.6   167     31.1   876.7    0.00     567    999.0
 298   13:50   76.7    18   21.8   168     30.0   876.7    0.00     548    999.0
 298   14:00   76.8    18   22.1   166     30.8   876.6    0.00     526    999.0
 298   14:10   76.5    18   24.5   159     33.0   876.5    0.00     501    999.0
 298   14:20   76.6    18   23.9   159     31.9   876.4    0.00     475    999.0
 298   14:30   76.4    18   21.8   175     30.5   876.4    0.00     449    999.0
 298   14:40   76.4    18   19.9   179     27.5   876.6    0.00     419    999.0
 298   14:50   75.9    18   22.0   175     30.2   876.7    0.00     388    999.0
 298   15:00   75.7    18   23.5   168     33.3   876.6    0.00     357    999.0
 298   15:10   75.6    18   21.0   172     31.0   876.7    0.00     328    999.0
 298   15:20   75.1    19   22.8   162     29.4   876.6    0.00     293    999.0
 298   15:30   75.1    19   20.7   162     27.8   876.6    0.00     262    999.0
 298   15:40   75.1    18   19.5   166     25.9   876.5    0.00     231    999.0
 298   15:50   74.5    19   23.0   162     28.9   876.4    0.00     200    999.0
 298   16:00   73.9    20   22.6   160     31.3   876.2    0.00     170    999.0
 298   16:10   73.6    19   21.6   160     29.7   876.2    0.00     141    999.0
 298   16:20   73.4    18   19.5   165     28.9   876.3    0.00     112    999.0
 298   16:30   73.0    18   18.6   164     25.4   876.4    0.00      85    999.0
 298   16:40   72.1    21   19.3   153     27.4   876.3    0.00      57    999.0
 298   16:50   71.3    23   21.2   145     26.4   876.2    0.00      29    999.0
 298   17:00   70.5    24   18.2   144     25.4   876.2    0.00       7    999.0
 298   17:10   69.9    24   18.3   144     23.3   876.3    0.00       2    999.0
 298   17:20   69.4    25   18.3   144     26.3   876.2    0.00       0    999.0
 298   17:30   69.4    25   20.0   140     27.7   876.1    0.00       0    999.0
 298   17:40   69.2    26   19.8   142     27.1   876.1    0.00       0    999.0
 298   17:50   69.0    26   18.9   141     25.4   876.2    0.00       0    999.0
 298   18:00   68.5    26   17.2   140     21.9   876.3    0.00       0    999.0
 298   18:10   68.5    27   19.1   139     26.3   876.3    0.00       0    999.0
 298   18:20   68.0    28   17.6   141     25.1   876.5    0.00       0    999.0
 298   18:30   67.3    29   15.2   141     23.0   876.7    0.00       0    999.0
 298   18:40   67.1    29   16.8   142     22.6   876.8    0.00       0    999.0
 298   18:50   66.8    30   16.2   146     21.1   877.0    0.00       0    999.0
 298   19:00   66.7    30   18.8   153     25.5   876.7    0.00       0    999.0
 298   19:10   66.2    30   16.6   153     22.0   876.7    0.00       0    999.0
 298   19:20   65.5    31   16.3   155     19.7   876.6    0.00       0    999.0
 298   19:30   65.2    31   17.2   154     22.1   876.5    0.00       0    999.0
 298   19:40   65.0    32   16.8   152     21.0   876.5    0.00       0    999.0
 298   19:50   63.7    33   12.4   138     17.8   876.6    0.00       0    999.0
 298   20:00   63.4    33   12.3   136     16.1   876.8    0.00       0    999.0
 298   20:10   63.3    34   13.5   149     18.5   876.8    0.00       0    999.0
 298   20:20   64.7    32   18.2   160     26.7   876.8    0.00       0    999.0
 298   20:30   65.4    31   18.8   159     26.2   876.8    0.00       0    999.0
 298   20:40   64.9    32   17.5   158     27.7   877.0    0.00       0    999.0
 298   20:50   64.9    31   18.1   156     24.0   877.1    0.00       0    999.0
 298   21:00   64.3    32   16.8   156     23.5   877.2    0.00       0    999.0
 298   21:10   63.6    33   15.9   155     21.2   877.2    0.00       0    999.0

Return to Sarcobatus Flat, Nevada graphs page.


Western Regional Climate Center,wrcc@dri.edu